sensor_id;sensor_type;location;lat;lon;timestamp;pressure;altitude;pressure_sealevel;temperature;humidity
10127;BME280;13080;42.608;23.362;2023-07-29T00:00:14;155369.38;;;16.84;61.04
10127;BME280;13080;42.608;23.362;2023-07-29T00:02:41;155364.16;;;16.82;61.88
10127;BME280;13080;42.608;23.362;2023-07-29T00:05:08;155354.94;;;16.78;62.90
10127;BME280;13080;42.608;23.362;2023-07-29T00:07:36;155343.22;;;16.74;62.74
10127;BME280;13080;42.608;23.362;2023-07-29T00:10:03;155326.25;;;16.67;63.33
10127;BME280;13080;42.608;23.362;2023-07-29T00:12:31;155343.22;;;16.74;63.14
10127;BME280;13080;42.608;23.362;2023-07-29T00:14:57;155338.00;;;16.72;62.76
10127;BME280;13080;42.608;23.362;2023-07-29T00:17:24;155351.03;;;16.77;63.52
10127;BME280;13080;42.608;23.362;2023-07-29T00:19:51;155341.91;;;16.73;63.76
10127;BME280;13080;42.608;23.362;2023-07-29T00:22:17;155324.97;;;16.67;62.95
10127;BME280;13080;42.608;23.362;2023-07-29T00:24:51;155315.81;;;16.63;63.55
10127;BME280;13080;42.608;23.362;2023-07-29T00:27:18;155302.78;;;16.58;63.72
10127;BME280;13080;42.608;23.362;2023-07-29T00:29:45;155288.41;;;16.52;64.21
10127;BME280;13080;42.608;23.362;2023-07-29T00:32:12;155275.38;;;16.47;64.28
10127;BME280;13080;42.608;23.362;2023-07-29T00:34:39;155267.56;;;16.44;64.48
10127;BME280;13080;42.608;23.362;2023-07-29T00:37:05;155261.06;;;16.41;65.69
10127;BME280;13080;42.608;23.362;2023-07-29T00:39:32;155245.38;;;16.35;65.74
10127;BME280;13080;42.608;23.362;2023-07-29T00:42:00;155227.13;;;16.28;65.92
10127;BME280;13080;42.608;23.362;2023-07-29T00:44:27;155220.63;;;16.26;66.56
10127;BME280;13080;42.608;23.362;2023-07-29T00:46:54;155210.19;;;16.21;66.19
10127;BME280;13080;42.608;23.362;2023-07-29T00:49:21;155195.81;;;16.16;66.89
10127;BME280;13080;42.608;23.362;2023-07-29T00:51:48;155180.16;;;16.10;67.16
10127;BME280;13080;42.608;23.362;2023-07-29T00:54:15;155156.69;;;16.00;67.37
10127;BME280;13080;42.608;23.362;2023-07-29T00:56:42;155144.97;;;15.96;67.93
10127;BME280;13080;42.608;23.362;2023-07-29T00:59:10;155126.72;;;15.89;68.39
10127;BME280;13080;42.608;23.362;2023-07-29T01:01:37;155114.97;;;15.84;68.30
10127;BME280;13080;42.608;23.362;2023-07-29T01:04:05;155099.31;;;15.78;68.45
10127;BME280;13080;42.608;23.362;2023-07-29T01:06:37;155081.09;;;15.71;68.54
10127;BME280;13080;42.608;23.362;2023-07-29T01:09:12;155075.81;;;15.69;68.18
10127;BME280;13080;42.608;23.362;2023-07-29T01:11:46;155075.81;;;15.69;68.61
10127;BME280;13080;42.608;23.362;2023-07-29T01:14:24;155066.72;;;15.65;68.03
10127;BME280;13080;42.608;23.362;2023-07-29T01:17:00;155061.50;;;15.63;68.27
10127;BME280;13080;42.608;23.362;2023-07-29T01:19:42;155056.28;;;15.61;67.25
10127;BME280;13080;42.608;23.362;2023-07-29T01:22:10;155051.06;;;15.59;67.36
10127;BME280;13080;42.608;23.362;2023-07-29T01:24:38;155045.84;;;15.57;67.20
10127;BME280;13080;42.608;23.362;2023-07-29T01:27:05;155039.34;;;15.54;67.27
10127;BME280;13080;42.608;23.362;2023-07-29T01:29:32;155034.13;;;15.52;67.68
10127;BME280;13080;42.608;23.362;2023-07-29T01:32:04;155032.81;;;15.52;68.14
10127;BME280;13080;42.608;23.362;2023-07-29T01:34:39;155038.03;;;15.54;67.99
10127;BME280;13080;42.608;23.362;2023-07-29T01:37:09;155026.31;;;15.49;67.97
10127;BME280;13080;42.608;23.362;2023-07-29T01:39:38;155022.38;;;15.48;67.98
10127;BME280;13080;42.608;23.362;2023-07-29T01:42:06;155030.19;;;15.51;68.60
10127;BME280;13080;42.608;23.362;2023-07-29T01:44:33;155027.59;;;15.50;68.38
10127;BME280;13080;42.608;23.362;2023-07-29T01:47:01;155024.97;;;15.49;68.20
10127;BME280;13080;42.608;23.362;2023-07-29T01:49:27;155026.31;;;15.49;68.26
10127;BME280;13080;42.608;23.362;2023-07-29T01:51:54;155027.59;;;15.50;67.72
10127;BME280;13080;42.608;23.362;2023-07-29T01:54:21;155019.75;;;15.47;68.34
10127;BME280;13080;42.608;23.362;2023-07-29T01:56:49;155018.47;;;15.46;69.01
10127;BME280;13080;42.608;23.362;2023-07-29T01:59:16;155010.66;;;15.43;69.89
10127;BME280;13080;42.608;23.362;2023-07-29T02:01:43;155004.16;;;15.41;70.18
10127;BME280;13080;42.608;23.362;2023-07-29T02:04:12;154985.88;;;15.33;70.38
10127;BME280;13080;42.608;23.362;2023-07-29T02:06:38;154970.25;;;15.27;71.09
10127;BME280;13080;42.608;23.362;2023-07-29T02:09:05;154953.31;;;15.21;71.25
10127;BME280;13080;42.608;23.362;2023-07-29T02:11:32;154936.38;;;15.14;71.85
10127;BME280;13080;42.608;23.362;2023-07-29T02:14:00;154914.22;;;15.05;71.64
10127;BME280;13080;42.608;23.362;2023-07-29T02:16:27;154898.56;;;14.99;72.12
10127;BME280;13080;42.608;23.362;2023-07-29T02:18:54;154893.34;;;14.97;71.98
10127;BME280;13080;42.608;23.362;2023-07-29T02:21:21;154885.56;;;14.94;72.03
10127;BME280;13080;42.608;23.362;2023-07-29T02:23:47;154889.47;;;14.95;72.09
10127;BME280;13080;42.608;23.362;2023-07-29T02:26:14;154890.78;;;14.96;71.96
10127;BME280;13080;42.608;23.362;2023-07-29T02:28:41;154886.84;;;14.94;72.13
10127;BME280;13080;42.608;23.362;2023-07-29T02:31:15;154885.56;;;14.94;71.96
10127;BME280;13080;42.608;23.362;2023-07-29T02:33:42;154889.47;;;14.95;72.29
10127;BME280;13080;42.608;23.362;2023-07-29T02:36:09;154884.25;;;14.93;72.20
10127;BME280;13080;42.608;23.362;2023-07-29T02:38:36;154882.94;;;14.93;71.87
10127;BME280;13080;42.608;23.362;2023-07-29T02:41:02;154896.00;;;14.98;71.20
10127;BME280;13080;42.608;23.362;2023-07-29T02:43:29;154888.13;;;14.95;71.28
10127;BME280;13080;42.608;23.362;2023-07-29T02:45:56;154877.72;;;14.91;72.34
10127;BME280;13080;42.608;23.362;2023-07-29T02:48:24;154871.19;;;14.88;72.41
10127;BME280;13080;42.608;23.362;2023-07-29T02:50:51;154871.19;;;14.88;72.26
10127;BME280;13080;42.608;23.362;2023-07-29T02:53:18;154862.09;;;14.85;72.36
10127;BME280;13080;42.608;23.362;2023-07-29T02:55:45;154859.47;;;14.84;72.53
10127;BME280;13080;42.608;23.362;2023-07-29T02:58:12;154859.47;;;14.84;72.49
10127;BME280;13080;42.608;23.362;2023-07-29T03:00:38;154858.19;;;14.83;72.21
10127;BME280;13080;42.608;23.362;2023-07-29T03:03:08;154859.47;;;14.84;72.26
10127;BME280;13080;42.608;23.362;2023-07-29T03:05:36;154860.81;;;14.84;71.99
10127;BME280;13080;42.608;23.362;2023-07-29T03:08:03;154865.97;;;14.86;72.02
10127;BME280;13080;42.608;23.362;2023-07-29T03:10:30;154865.97;;;14.86;71.60
10127;BME280;13080;42.608;23.362;2023-07-29T03:12:57;154869.91;;;14.88;71.27
10127;BME280;13080;42.608;23.362;2023-07-29T03:15:24;154873.84;;;14.89;71.11
10127;BME280;13080;42.608;23.362;2023-07-29T03:17:51;154876.41;;;14.90;71.37
10127;BME280;13080;42.608;23.362;2023-07-29T03:20:18;154876.41;;;14.90;71.87
10127;BME280;13080;42.608;23.362;2023-07-29T03:22:46;154877.72;;;14.91;71.58
10127;BME280;13080;42.608;23.362;2023-07-29T03:25:13;154881.63;;;14.92;72.35
10127;BME280;13080;42.608;23.362;2023-07-29T03:27:40;154885.56;;;14.94;72.73
10127;BME280;13080;42.608;23.362;2023-07-29T03:30:07;154886.84;;;14.94;72.43
10127;BME280;13080;42.608;23.362;2023-07-29T03:32:34;154893.34;;;14.97;72.88
10127;BME280;13080;42.608;23.362;2023-07-29T03:35:01;154903.78;;;15.01;72.61
10127;BME280;13080;42.608;23.362;2023-07-29T03:37:27;154910.28;;;15.04;72.15
10127;BME280;13080;42.608;23.362;2023-07-29T03:39:56;154928.53;;;15.11;72.87
10127;BME280;13080;42.608;23.362;2023-07-29T03:42:23;154927.25;;;15.10;73.18
10127;BME280;13080;42.608;23.362;2023-07-29T03:44:50;154931.16;;;15.12;73.12
10127;BME280;13080;42.608;23.362;2023-07-29T03:47:16;154933.75;;;15.13;72.99
10127;BME280;13080;42.608;23.362;2023-07-29T03:49:43;154942.88;;;15.16;73.87
10127;BME280;13080;42.608;23.362;2023-07-29T03:52:10;154946.81;;;15.18;74.47
10127;BME280;13080;42.608;23.362;2023-07-29T03:54:36;154945.47;;;15.17;75.43
10127;BME280;13080;42.608;23.362;2023-07-29T03:57:05;154950.69;;;15.20;75.46
10127;BME280;13080;42.608;23.362;2023-07-29T03:59:32;154971.56;;;15.28;75.08
10127;BME280;13080;42.608;23.362;2023-07-29T04:01:59;154985.88;;;15.33;74.94
10127;BME280;13080;42.608;23.362;2023-07-29T04:04:25;154987.22;;;15.34;75.23
10127;BME280;13080;42.608;23.362;2023-07-29T04:06:52;154992.41;;;15.36;74.70
10127;BME280;13080;42.608;23.362;2023-07-29T04:09:19;154996.31;;;15.37;74.43
10127;BME280;13080;42.608;23.362;2023-07-29T04:11:46;155015.88;;;15.45;74.28
10127;BME280;13080;42.608;23.362;2023-07-29T04:14:14;155044.56;;;15.56;74.82
10127;BME280;13080;42.608;23.362;2023-07-29T04:16:41;155081.09;;;15.71;74.48
10127;BME280;13080;42.608;23.362;2023-07-29T04:19:08;155121.50;;;15.87;73.81
10127;BME280;13080;42.608;23.362;2023-07-29T04:21:34;155138.44;;;15.93;74.18
10127;BME280;13080;42.608;23.362;2023-07-29T04:24:01;155163.25;;;16.03;73.88
10127;BME280;13080;42.608;23.362;2023-07-29T04:26:28;155182.78;;;16.11;73.67
10127;BME280;13080;42.608;23.362;2023-07-29T04:28:54;155203.69;;;16.19;73.65
10127;BME280;13080;42.608;23.362;2023-07-29T04:31:23;155220.63;;;16.26;73.25
10127;BME280;13080;42.608;23.362;2023-07-29T04:33:49;155250.59;;;16.37;73.55
10127;BME280;13080;42.608;23.362;2023-07-29T04:36:16;155268.88;;;16.45;74.48
10127;BME280;13080;42.608;23.362;2023-07-29T04:38:43;155272.78;;;16.46;75.20
10127;BME280;13080;42.608;23.362;2023-07-29T04:41:09;155287.13;;;16.52;74.80
10127;BME280;13080;42.608;23.362;2023-07-29T04:43:36;155294.97;;;16.55;75.01
10127;BME280;13080;42.608;23.362;2023-07-29T04:46:06;155309.28;;;16.60;75.54
10127;BME280;13080;42.608;23.362;2023-07-29T04:48:34;155338.00;;;16.72;75.89
10127;BME280;13080;42.608;23.362;2023-07-29T04:51:01;155352.38;;;16.77;76.20
10127;BME280;13080;42.608;23.362;2023-07-29T04:53:28;155373.25;;;16.86;75.69
10127;BME280;13080;42.608;23.362;2023-07-29T04:55:55;155391.56;;;16.93;76.68
10127;BME280;13080;42.608;23.362;2023-07-29T04:58:21;155433.31;;;17.09;74.58
10127;BME280;13080;42.608;23.362;2023-07-29T05:00:48;155462.00;;;17.20;74.28
10127;BME280;13080;42.608;23.362;2023-07-29T05:03:15;155455.50;;;17.18;75.83
10127;BME280;13080;42.608;23.362;2023-07-29T05:05:43;155456.78;;;17.18;76.16
10127;BME280;13080;42.608;23.362;2023-07-29T05:08:10;155472.47;;;17.24;75.31
10127;BME280;13080;42.608;23.362;2023-07-29T05:10:37;155488.09;;;17.31;74.30
10127;BME280;13080;42.608;23.362;2023-07-29T05:13:03;155505.06;;;17.37;73.44
10127;BME280;13080;42.608;23.362;2023-07-29T05:15:30;155532.47;;;17.48;73.13
10127;BME280;13080;42.608;23.362;2023-07-29T05:17:57;155548.16;;;17.54;73.07
10127;BME280;13080;42.608;23.362;2023-07-29T05:20:23;155567.72;;;17.62;73.20
10127;BME280;13080;42.608;23.362;2023-07-29T05:22:52;155595.13;;;17.73;72.03
10127;BME280;13080;42.608;23.362;2023-07-29T05:25:18;155610.81;;;17.79;71.80
10127;BME280;13080;42.608;23.362;2023-07-29T05:27:45;155622.59;;;17.83;71.78
10127;BME280;13080;42.608;23.362;2023-07-29T05:30:12;155639.56;;;17.90;70.55
10127;BME280;13080;42.608;23.362;2023-07-29T05:32:38;155681.34;;;18.06;70.82
10127;BME280;13080;42.608;23.362;2023-07-29T05:35:06;155686.56;;;18.08;70.55
10127;BME280;13080;42.608;23.362;2023-07-29T05:37:33;155714.00;;;18.19;69.04
10127;BME280;13080;42.608;23.362;2023-07-29T05:40:01;155729.69;;;18.25;69.94
10127;BME280;13080;42.608;23.362;2023-07-29T05:42:28;155737.50;;;18.28;70.57
10127;BME280;13080;42.608;23.362;2023-07-29T05:44:55;155751.88;;;18.34;68.92
10127;BME280;13080;42.608;23.362;2023-07-29T05:47:22;155776.69;;;18.44;69.15
10127;BME280;13080;42.608;23.362;2023-07-29T05:49:48;155798.91;;;18.53;69.16
10127;BME280;13080;42.608;23.362;2023-07-29T05:52:15;155808.00;;;18.56;68.53
10127;BME280;13080;42.608;23.362;2023-07-29T05:54:42;155819.75;;;18.61;67.92
10127;BME280;13080;42.608;23.362;2023-07-29T05:57:11;155843.31;;;18.70;67.19
10127;BME280;13080;42.608;23.362;2023-07-29T05:59:38;155853.72;;;18.74;66.27
10127;BME280;13080;42.608;23.362;2023-07-29T06:02:05;155873.41;;;18.82;66.17
10127;BME280;13080;42.608;23.362;2023-07-29T06:04:32;155903.44;;;18.94;67.64
10127;BME280;13080;42.608;23.362;2023-07-29T06:06:59;155908.69;;;18.96;65.53
10127;BME280;13080;42.608;23.362;2023-07-29T06:09:25;155942.66;;;19.09;64.97
10127;BME280;13080;42.608;23.362;2023-07-29T06:11:52;155971.41;;;19.20;64.56
10127;BME280;13080;42.608;23.362;2023-07-29T06:14:20;155989.69;;;19.27;62.91
10127;BME280;13080;42.608;23.362;2023-07-29T06:16:47;156023.66;;;19.41;65.08
10127;BME280;13080;42.608;23.362;2023-07-29T06:19:14;156040.66;;;19.47;63.05
10127;BME280;13080;42.608;23.362;2023-07-29T06:21:40;156081.16;;;19.63;63.18
10127;BME280;13080;42.608;23.362;2023-07-29T06:24:07;156140.03;;;19.86;61.72
10127;BME280;13080;42.608;23.362;2023-07-29T06:26:34;156146.59;;;19.89;61.29
10127;BME280;13080;42.608;23.362;2023-07-29T06:29:01;156180.59;;;20.02;61.78
10127;BME280;13080;42.608;23.362;2023-07-29T06:31:29;156213.25;;;20.15;60.94
10127;BME280;13080;42.608;23.362;2023-07-29T06:33:56;156259.03;;;20.33;62.28
10127;BME280;13080;42.608;23.362;2023-07-29T06:36:22;156279.97;;;20.41;60.08
10127;BME280;13080;42.608;23.362;2023-07-29T06:38:49;156324.50;;;20.59;59.39
10127;BME280;13080;42.608;23.362;2023-07-29T06:41:16;156338.84;;;20.64;60.84
10127;BME280;13080;42.608;23.362;2023-07-29T06:43:43;156396.41;;;20.87;58.17
10127;BME280;13080;42.608;23.362;2023-07-29T06:46:09;156418.66;;;20.95;58.67
10127;BME280;13080;42.608;23.362;2023-07-29T06:48:37;156439.59;;;21.04;57.41
10127;BME280;13080;42.608;23.362;2023-07-29T06:51:04;156439.59;;;21.04;56.56
10127;BME280;13080;42.608;23.362;2023-07-29T06:53:31;156422.59;;;20.97;56.66
10127;BME280;13080;42.608;23.362;2023-07-29T06:55:58;156455.31;;;21.10;57.70
10127;BME280;13080;42.608;23.362;2023-07-29T06:58:25;156506.31;;;21.30;54.69
10127;BME280;13080;42.608;23.362;2023-07-29T07:00:52;156499.75;;;21.27;56.25
10127;BME280;13080;42.608;23.362;2023-07-29T07:03:18;156529.91;;;21.39;56.27
10127;BME280;13080;42.608;23.362;2023-07-29T07:05:46;156558.75;;;21.50;57.51
10127;BME280;13080;42.608;23.362;2023-07-29T07:08:13;156583.59;;;21.60;55.31
10127;BME280;13080;42.608;23.362;2023-07-29T07:10:40;156601.91;;;21.67;54.28
10127;BME280;13080;42.608;23.362;2023-07-29T07:13:07;156635.94;;;21.80;53.01
10127;BME280;13080;42.608;23.362;2023-07-29T07:15:33;156659.50;;;21.90;52.74
10127;BME280;13080;42.608;23.362;2023-07-29T07:18:00;156658.19;;;21.89;52.80
10127;BME280;13080;42.608;23.362;2023-07-29T07:20:27;156671.28;;;21.94;53.36
10127;BME280;13080;42.608;23.362;2023-07-29T07:22:55;156696.19;;;22.04;53.04
10127;BME280;13080;42.608;23.362;2023-07-29T07:25:22;156704.00;;;22.07;52.86
10127;BME280;13080;42.608;23.362;2023-07-29T07:27:48;156732.81;;;22.18;51.20
10127;BME280;13080;42.608;23.362;2023-07-29T07:30:15;156731.53;;;22.18;51.29
10127;BME280;13080;42.608;23.362;2023-07-29T07:32:42;156761.69;;;22.30;50.74
10127;BME280;13080;42.608;23.362;2023-07-29T07:35:08;156770.88;;;22.33;50.63
10127;BME280;13080;42.608;23.362;2023-07-29T07:37:35;156780.00;;;22.37;52.10
10127;BME280;13080;42.608;23.362;2023-07-29T07:40:04;156823.22;;;22.54;52.07
10127;BME280;13080;42.608;23.362;2023-07-29T07:42:31;156835.00;;;22.58;49.89
10127;BME280;13080;42.608;23.362;2023-07-29T07:44:58;156870.38;;;22.72;51.59
10127;BME280;13080;42.608;23.362;2023-07-29T07:47:24;156897.88;;;22.83;52.46
10127;BME280;13080;42.608;23.362;2023-07-29T07:49:51;156926.69;;;22.94;49.72
10127;BME280;13080;42.608;23.362;2023-07-29T07:52:18;156958.16;;;23.07;50.11
10127;BME280;13080;42.608;23.362;2023-07-29T07:54:45;156973.91;;;23.13;51.57
10127;BME280;13080;42.608;23.362;2023-07-29T07:57:13;156998.78;;;23.22;51.47
10127;BME280;13080;42.608;23.362;2023-07-29T07:59:39;157025.00;;;23.33;50.27
10127;BME280;13080;42.608;23.362;2023-07-29T08:02:06;157059.06;;;23.46;50.03
10127;BME280;13080;42.608;23.362;2023-07-29T08:04:33;157036.78;;;23.37;49.30
10127;BME280;13080;42.608;23.362;2023-07-29T08:07:00;157035.50;;;23.37;49.97
10127;BME280;13080;42.608;23.362;2023-07-29T08:09:26;157053.81;;;23.44;49.16
10127;BME280;13080;42.608;23.362;2023-07-29T08:11:53;157080.06;;;23.54;49.04
10127;BME280;13080;42.608;23.362;2023-07-29T08:14:21;157129.81;;;23.74;48.89
10127;BME280;13080;42.608;23.362;2023-07-29T08:16:48;157142.97;;;23.79;50.25
10127;BME280;13080;42.608;23.362;2023-07-29T08:19:15;157174.44;;;23.91;48.95
10127;BME280;13080;42.608;23.362;2023-07-29T08:21:41;157211.13;;;24.05;47.68
10127;BME280;13080;42.608;23.362;2023-07-29T08:24:08;157192.78;;;23.98;48.47
10127;BME280;13080;42.608;23.362;2023-07-29T08:26:35;157187.53;;;23.96;45.48
10127;BME280;13080;42.608;23.362;2023-07-29T08:29:01;157192.78;;;23.98;47.71
10127;BME280;13080;42.608;23.362;2023-07-29T08:31:30;157199.31;;;24.01;45.85
10127;BME280;13080;42.608;23.362;2023-07-29T08:33:58;157230.81;;;24.13;47.29
10127;BME280;13080;42.608;23.362;2023-07-29T08:36:25;157242.59;;;24.18;45.08
10127;BME280;13080;42.608;23.362;2023-07-29T08:38:52;157211.13;;;24.05;45.53
10127;BME280;13080;42.608;23.362;2023-07-29T08:41:23;157162.66;;;23.86;45.81
10127;BME280;13080;42.608;23.362;2023-07-29T08:43:56;157177.03;;;23.92;47.22
10127;BME280;13080;42.608;23.362;2023-07-29T08:46:26;157220.31;;;24.09;44.93
10127;BME280;13080;42.608;23.362;2023-07-29T08:48:55;157251.75;;;24.21;46.44
10127;BME280;13080;42.608;23.362;2023-07-29T08:51:23;157304.25;;;24.42;46.76
10127;BME280;13080;42.608;23.362;2023-07-29T08:53:51;157297.63;;;24.39;44.51
10127;BME280;13080;42.608;23.362;2023-07-29T08:56:18;157317.34;;;24.47;45.41
10127;BME280;13080;42.608;23.362;2023-07-29T08:58:45;157330.47;;;24.52;45.21
10127;BME280;13080;42.608;23.362;2023-07-29T09:01:12;157313.38;;;24.45;42.00
10127;BME280;13080;42.608;23.362;2023-07-29T09:03:38;157312.09;;;24.45;42.58
10127;BME280;13080;42.608;23.362;2023-07-29T09:06:07;157352.78;;;24.61;42.86
10127;BME280;13080;42.608;23.362;2023-07-29T09:08:34;157392.13;;;24.76;43.72
10127;BME280;13080;42.608;23.362;2023-07-29T09:11:01;157417.03;;;24.86;42.86
10127;BME280;13080;42.608;23.362;2023-07-29T09:13:28;157423.56;;;24.88;41.80
10127;BME280;13080;42.608;23.362;2023-07-29T09:15:57;157465.56;;;25.05;42.51
10127;BME280;13080;42.608;23.362;2023-07-29T09:18:26;157482.63;;;25.12;41.02
10127;BME280;13080;42.608;23.362;2023-07-29T09:20:53;157481.28;;;25.11;41.98
10127;BME280;13080;42.608;23.362;2023-07-29T09:23:21;157529.91;;;25.30;41.70
10127;BME280;13080;42.608;23.362;2023-07-29T09:25:48;157528.59;;;25.29;38.41
10127;BME280;13080;42.608;23.362;2023-07-29T09:28:16;157554.81;;;25.40;38.24
10127;BME280;13080;42.608;23.362;2023-07-29T09:30:45;157508.88;;;25.22;37.55
10127;BME280;13080;42.608;23.362;2023-07-29T09:33:12;157537.75;;;25.33;38.40
10127;BME280;13080;42.608;23.362;2023-07-29T09:35:38;157539.09;;;25.34;37.60
10127;BME280;13080;42.608;23.362;2023-07-29T09:38:06;157536.44;;;25.33;38.70
10127;BME280;13080;42.608;23.362;2023-07-29T09:40:39;157544.31;;;25.36;37.70
10127;BME280;13080;42.608;23.362;2023-07-29T09:43:07;157558.75;;;25.41;39.06
10127;BME280;13080;42.608;23.362;2023-07-29T09:45:35;157590.22;;;25.54;36.61
10127;BME280;13080;42.608;23.362;2023-07-29T09:48:03;157592.88;;;25.55;38.44
10127;BME280;13080;42.608;23.362;2023-07-29T09:50:30;157583.66;;;25.51;38.57
10127;BME280;13080;42.608;23.362;2023-07-29T09:52:57;157595.47;;;25.56;37.57
10127;BME280;13080;42.608;23.362;2023-07-29T09:55:25;157623.03;;;25.66;37.52
10127;BME280;13080;42.608;23.362;2023-07-29T09:57:56;157657.16;;;25.80;37.94
10127;BME280;13080;42.608;23.362;2023-07-29T10:00:23;157620.44;;;25.65;35.54
10127;BME280;13080;42.608;23.362;2023-07-29T10:02:50;157647.94;;;25.76;36.68
10127;BME280;13080;42.608;23.362;2023-07-29T10:05:19;157665.00;;;25.83;36.32
10127;BME280;13080;42.608;23.362;2023-07-29T10:07:47;157705.78;;;25.99;36.95
10127;BME280;13080;42.608;23.362;2023-07-29T10:10:14;157712.34;;;26.01;37.78
10127;BME280;13080;42.608;23.362;2023-07-29T10:12:41;157743.81;;;26.13;36.40
10127;BME280;13080;42.608;23.362;2023-07-29T10:15:10;157714.94;;;26.02;35.73
10127;BME280;13080;42.608;23.362;2023-07-29T10:17:38;157704.44;;;25.98;36.05
10127;BME280;13080;42.608;23.362;2023-07-29T10:20:07;157712.34;;;26.01;34.47
10127;BME280;13080;42.608;23.362;2023-07-29T10:22:37;157708.38;;;26.00;34.67
10127;BME280;13080;42.608;23.362;2023-07-29T10:25:07;157747.75;;;26.15;36.53
10127;BME280;13080;42.608;23.362;2023-07-29T10:27:42;157760.88;;;26.20;33.55
10127;BME280;13080;42.608;23.362;2023-07-29T10:30:12;157798.97;;;26.35;34.16
10127;BME280;13080;42.608;23.362;2023-07-29T10:32:42;157812.06;;;26.40;33.90
10127;BME280;13080;42.608;23.362;2023-07-29T10:35:11;157826.53;;;26.46;34.85
10127;BME280;13080;42.608;23.362;2023-07-29T10:37:38;157852.81;;;26.56;34.00
10127;BME280;13080;42.608;23.362;2023-07-29T10:40:07;157802.84;;;26.37;33.60
10127;BME280;13080;42.608;23.362;2023-07-29T10:42:34;157785.78;;;26.30;34.89
10127;BME280;13080;42.608;23.362;2023-07-29T10:45:19;157838.34;;;26.50;35.33
10127;BME280;13080;42.608;23.362;2023-07-29T10:47:46;157897.47;;;26.73;34.76
10127;BME280;13080;42.608;23.362;2023-07-29T10:50:18;157918.47;;;26.82;33.14
10127;BME280;13080;42.608;23.362;2023-07-29T10:52:49;157893.50;;;26.72;33.29
10127;BME280;13080;42.608;23.362;2023-07-29T10:55:30;157928.94;;;26.86;33.70
10127;BME280;13080;42.608;23.362;2023-07-29T10:58:10;157948.66;;;26.93;33.73
10127;BME280;13080;42.608;23.362;2023-07-29T11:00:41;157960.47;;;26.98;33.34
10127;BME280;13080;42.608;23.362;2023-07-29T11:03:08;157974.91;;;27.04;34.15
10127;BME280;13080;42.608;23.362;2023-07-29T11:05:49;157969.66;;;27.02;33.91
10127;BME280;13080;42.608;23.362;2023-07-29T11:08:17;157986.72;;;27.08;32.01
10127;BME280;13080;42.608;23.362;2023-07-29T11:10:45;157971.00;;;27.02;31.76
10127;BME280;13080;42.608;23.362;2023-07-29T11:13:26;158014.31;;;27.19;33.19
10127;BME280;13080;42.608;23.362;2023-07-29T11:15:55;157990.69;;;27.10;33.65
10127;BME280;13080;42.608;23.362;2023-07-29T11:18:26;157967.03;;;27.01;32.62
10127;BME280;13080;42.608;23.362;2023-07-29T11:20:54;157981.50;;;27.06;32.51
10127;BME280;13080;42.608;23.362;2023-07-29T11:23:27;158023.56;;;27.23;31.40
10127;BME280;13080;42.608;23.362;2023-07-29T11:25:54;158024.88;;;27.23;32.07
10127;BME280;13080;42.608;23.362;2023-07-29T11:28:21;158049.81;;;27.33;33.48
10127;BME280;13080;42.608;23.362;2023-07-29T11:30:49;158047.19;;;27.32;32.16
10127;BME280;13080;42.608;23.362;2023-07-29T11:33:19;158043.25;;;27.30;32.40
10127;BME280;13080;42.608;23.362;2023-07-29T11:35:46;158052.47;;;27.34;33.44
10127;BME280;13080;42.608;23.362;2023-07-29T11:38:17;158089.22;;;27.48;33.25
10127;BME280;13080;42.608;23.362;2023-07-29T11:40:54;158112.84;;;27.57;32.71
10127;BME280;13080;42.608;23.362;2023-07-29T11:43:21;158094.47;;;27.50;33.31
10127;BME280;13080;42.608;23.362;2023-07-29T11:45:47;158110.25;;;27.56;33.00
10127;BME280;13080;42.608;23.362;2023-07-29T11:48:14;158127.34;;;27.63;33.82
10127;BME280;13080;42.608;23.362;2023-07-29T11:50:42;158143.09;;;27.69;31.84
10127;BME280;13080;42.608;23.362;2023-07-29T11:53:11;158147.00;;;27.71;32.37
10127;BME280;13080;42.608;23.362;2023-07-29T11:55:38;158141.75;;;27.69;31.07
10127;BME280;13080;42.608;23.362;2023-07-29T11:58:04;158099.72;;;27.52;32.19
10127;BME280;13080;42.608;23.362;2023-07-29T12:00:31;158097.13;;;27.51;32.53
10127;BME280;13080;42.608;23.362;2023-07-29T12:02:58;158060.31;;;27.37;32.85
10127;BME280;13080;42.608;23.362;2023-07-29T12:05:26;158102.38;;;27.53;32.02
10127;BME280;13080;42.608;23.362;2023-07-29T12:07:54;158076.09;;;27.43;33.01
10127;BME280;13080;42.608;23.362;2023-07-29T12:10:22;158064.28;;;27.39;34.38
10127;BME280;13080;42.608;23.362;2023-07-29T12:12:50;158069.53;;;27.41;35.21
10127;BME280;13080;42.608;23.362;2023-07-29T12:15:24;158090.53;;;27.49;33.76
10127;BME280;13080;42.608;23.362;2023-07-29T12:17:53;158112.84;;;27.57;33.39
10127;BME280;13080;42.608;23.362;2023-07-29T12:20:21;158154.94;;;27.74;33.41
10127;BME280;13080;42.608;23.362;2023-07-29T12:22:52;158190.44;;;27.88;32.49
10127;BME280;13080;42.608;23.362;2023-07-29T12:25:20;158202.25;;;27.92;31.35
10127;BME280;13080;42.608;23.362;2023-07-29T12:27:47;158160.19;;;27.76;32.24
10127;BME280;13080;42.608;23.362;2023-07-29T12:30:14;158175.91;;;27.82;32.86
10127;BME280;13080;42.608;23.362;2023-07-29T12:32:45;158149.66;;;27.72;31.07
10127;BME280;13080;42.608;23.362;2023-07-29T12:35:13;158175.91;;;27.82;32.50
10127;BME280;13080;42.608;23.362;2023-07-29T12:37:40;158224.59;;;28.01;32.97
10127;BME280;13080;42.608;23.362;2023-07-29T12:40:21;158250.84;;;28.11;31.83
10127;BME280;13080;42.608;23.362;2023-07-29T12:42:49;158240.38;;;28.07;31.02